createdAt,value
2022-08-26T00:02:47.986Z,9.30
2022-08-26T00:05:56.746Z,10.00
2022-08-26T00:09:08.021Z,9.20
2022-08-26T00:12:16.614Z,9.13
2022-08-26T00:15:26.597Z,8.90
2022-08-26T00:18:38.778Z,9.37
2022-08-26T00:21:49.932Z,9.60
2022-08-26T00:24:58.262Z,9.00
2022-08-26T00:28:08.024Z,9.17
2022-08-26T00:31:20.911Z,9.17
2022-08-26T00:34:30.303Z,9.50
2022-08-26T00:37:39.075Z,9.33
2022-08-26T00:40:50.433Z,9.50
2022-08-26T00:43:58.840Z,9.17
2022-08-26T00:47:25.281Z,9.77
2022-08-26T00:50:49.406Z,9.57
2022-08-26T00:54:05.356Z,10.93
2022-08-26T00:57:18.268Z,10.70
2022-08-26T01:00:34.795Z,9.30
2022-08-26T01:03:47.016Z,10.50
2022-08-26T01:06:55.956Z,9.97
2022-08-26T01:10:09.218Z,10.17
2022-08-26T01:13:20.101Z,9.97
2022-08-26T01:16:28.697Z,11.00
2022-08-26T01:19:47.249Z,11.57
2022-08-26T01:23:01.626Z,10.77
2022-08-26T01:26:19.777Z,11.20
2022-08-26T01:29:32.071Z,12.13
2022-08-26T01:32:41.689Z,10.27
2022-08-26T01:35:51.309Z,10.60
2022-08-26T01:39:01.148Z,9.37
2022-08-26T01:42:17.851Z,9.17
2022-08-26T01:45:31.855Z,9.83
2022-08-26T01:48:43.830Z,8.80
2022-08-26T01:51:55.915Z,10.07
2022-08-26T01:55:09.153Z,9.33
2022-08-26T01:58:25.752Z,9.30
2022-08-26T02:01:36.233Z,8.87
2022-08-26T02:04:51.795Z,9.07
2022-08-26T02:08:00.049Z,8.23
2022-08-26T02:11:09.610Z,7.90
2022-08-26T02:14:22.659Z,6.90
2022-08-26T02:17:38.632Z,7.07
2022-08-26T02:20:47.051Z,7.63
2022-08-26T02:24:11.337Z,6.87
2022-08-26T02:27:28.211Z,7.00
2022-08-26T02:30:44.801Z,7.33
2022-08-26T02:33:53.307Z,7.33
2022-08-26T02:37:05.282Z,6.97
2022-08-26T02:40:16.318Z,7.70
2022-08-26T02:43:31.762Z,7.10
2022-08-26T02:46:41.751Z,7.77
2022-08-26T02:49:55.353Z,7.23
2022-08-26T02:53:03.710Z,7.70
2022-08-26T02:56:12.045Z,7.30
2022-08-26T02:59:22.939Z,7.37
2022-08-26T03:02:32.701Z,7.73
2022-08-26T03:05:42.460Z,7.53
2022-08-26T03:08:52.032Z,7.77
2022-08-26T03:12:00.527Z,7.30
2022-08-26T03:15:17.996Z,7.47
2022-08-26T03:18:26.593Z,8.33
2022-08-26T03:21:36.978Z,8.07
2022-08-26T03:24:46.085Z,7.13
2022-08-26T03:27:55.167Z,7.83
2022-08-26T03:31:03.817Z,7.77
2022-08-26T03:34:12.057Z,7.50
2022-08-26T03:37:21.624Z,8.07
2022-08-26T03:40:30.525Z,7.43
2022-08-26T03:43:39.075Z,7.60
2022-08-26T03:46:50.022Z,8.80
2022-08-26T03:50:01.439Z,7.67
2022-08-26T03:53:12.782Z,7.73
2022-08-26T03:56:21.872Z,8.50
2022-08-26T03:59:30.055Z,7.57
2022-08-26T04:02:39.898Z,7.40
2022-08-26T04:05:53.168Z,7.67
2022-08-26T04:09:05.670Z,7.93
2022-08-26T04:12:13.949Z,8.33
2022-08-26T04:15:22.846Z,8.63
2022-08-26T04:18:37.023Z,8.77
2022-08-26T04:21:47.169Z,9.07
2022-08-26T04:24:56.497Z,10.93
2022-08-26T04:28:05.068Z,12.53
2022-08-26T04:31:16.020Z,13.23
2022-08-26T04:34:28.740Z,10.13
2022-08-26T04:37:37.464Z,7.97
2022-08-26T04:40:46.819Z,8.43
2022-08-26T04:43:55.337Z,7.97
2022-08-26T04:47:04.706Z,7.97
2022-08-26T04:50:15.270Z,7.97
2022-08-26T04:53:32.199Z,8.37
2022-08-26T04:56:46.394Z,9.33
2022-08-26T04:59:56.350Z,6.97
2022-08-26T05:03:04.513Z,6.83
2022-08-26T05:06:16.516Z,6.23
2022-08-26T05:09:27.371Z,6.67
2022-08-26T05:12:35.573Z,6.07
2022-08-26T05:15:45.149Z,6.13
2022-08-26T05:18:54.928Z,5.60
2022-08-26T05:22:05.552Z,6.33
2022-08-26T05:25:13.739Z,6.17
2022-08-26T05:28:23.346Z,6.23
2022-08-26T05:31:34.178Z,6.40
2022-08-26T05:34:43.009Z,5.77
2022-08-26T05:37:52.695Z,5.40
2022-08-26T05:41:02.084Z,5.67
2022-08-26T05:44:16.119Z,5.07
2022-08-26T05:47:25.117Z,5.00
2022-08-26T05:50:33.308Z,5.20
2022-08-26T05:53:54.846Z,4.73
2022-08-26T05:57:03.244Z,4.70
2022-08-26T06:00:16.153Z,4.50
2022-08-26T06:03:25.338Z,4.43
2022-08-26T06:06:36.817Z,4.73
2022-08-26T06:09:47.675Z,4.13
2022-08-26T06:12:56.788Z,4.27
2022-08-26T06:16:09.316Z,4.07
2022-08-26T06:19:17.632Z,4.00
2022-08-26T06:22:43.514Z,4.23
2022-08-26T06:25:53.026Z,4.03
2022-08-26T06:29:01.714Z,3.70
2022-08-26T06:32:12.577Z,3.77
2022-08-26T06:35:20.790Z,3.73
2022-08-26T06:38:29.861Z,3.43
2022-08-26T06:41:46.310Z,3.60
2022-08-26T06:48:11.119Z,3.23
2022-08-26T06:51:23.577Z,3.20
2022-08-26T06:54:32.004Z,3.50
2022-08-26T06:57:42.099Z,3.07
2022-08-26T07:00:53.859Z,3.10
2022-08-26T07:04:07.903Z,3.07
2022-08-26T07:07:22.054Z,3.17
2022-08-26T07:10:31.308Z,3.27
2022-08-26T07:13:41.813Z,3.50
2022-08-26T07:16:51.813Z,3.60
2022-08-26T07:19:59.988Z,3.40
2022-08-26T07:23:11.733Z,3.10
2022-08-26T07:26:23.401Z,3.10
2022-08-26T07:29:35.473Z,3.03
2022-08-26T07:32:43.631Z,3.43
2022-08-26T07:35:51.734Z,3.70
2022-08-26T07:38:59.882Z,3.13
2022-08-26T07:42:08.732Z,3.30
2022-08-26T07:45:18.805Z,3.63
2022-08-26T07:48:27.216Z,4.20
2022-08-26T07:51:37.609Z,4.33
2022-08-26T07:54:46.022Z,4.23
2022-08-26T07:57:54.346Z,4.50
2022-08-26T08:01:05.173Z,3.30
2022-08-26T08:04:25.522Z,4.30
2022-08-26T08:07:44.327Z,4.50
2022-08-26T08:10:53.919Z,4.53
2022-08-26T08:14:02.587Z,3.67
2022-08-26T08:17:17.980Z,4.17
2022-08-26T08:20:29.838Z,4.60
2022-08-26T08:23:38.358Z,4.77
2022-08-26T08:26:47.435Z,4.57
2022-08-26T08:29:56.824Z,4.10
2022-08-26T08:33:06.606Z,4.90
2022-08-26T08:36:18.492Z,4.30
2022-08-26T08:39:29.067Z,4.57
2022-08-26T08:42:47.168Z,4.10
2022-08-26T08:46:03.585Z,3.87
2022-08-26T08:49:16.321Z,4.13
2022-08-26T08:52:32.164Z,3.80
2022-08-26T08:56:00.042Z,4.47
2022-08-26T08:59:17.330Z,4.00
2022-08-26T09:02:35.776Z,3.90
2022-08-26T09:05:51.400Z,4.23
2022-08-26T09:09:02.328Z,3.70
2022-08-26T09:12:20.397Z,4.40
2022-08-26T09:15:59.705Z,4.23
2022-08-26T09:19:19.162Z,4.30
2022-08-26T09:22:35.839Z,4.03
2022-08-26T09:25:51.369Z,4.70
2022-08-26T09:29:03.021Z,5.10
2022-08-26T09:32:21.210Z,4.50
2022-08-26T09:35:33.240Z,4.47
2022-08-26T09:38:44.219Z,4.50
2022-08-26T09:42:06.868Z,4.40
2022-08-26T09:45:17.022Z,3.67
2022-08-26T09:48:35.494Z,4.17
2022-08-26T09:51:44.435Z,5.20
2022-08-26T09:55:15.604Z,4.70
2022-08-26T09:58:37.957Z,4.63
2022-08-26T10:01:46.748Z,3.50
2022-08-26T10:04:58.614Z,4.67
2022-08-26T10:08:25.199Z,4.60
2022-08-26T10:11:44.839Z,5.20
2022-08-26T10:15:04.439Z,4.70
2022-08-26T10:18:19.168Z,5.30
2022-08-26T10:21:34.197Z,5.00
2022-08-26T10:24:49.839Z,5.33
2022-08-26T10:28:11.984Z,5.43
2022-08-26T10:31:29.357Z,6.00
2022-08-26T10:34:37.996Z,5.47
2022-08-26T10:37:50.789Z,5.10
2022-08-26T10:41:09.911Z,6.10
2022-08-26T10:44:21.919Z,5.97
2022-08-26T10:47:44.217Z,5.63
2022-08-26T10:50:53.368Z,6.63
2022-08-26T10:54:11.906Z,5.63
2022-08-26T10:57:34.968Z,10.70
2022-08-26T11:01:10.825Z,4.93
2022-08-26T11:04:45.628Z,6.40
2022-08-26T11:08:46.383Z,5.67
2022-08-26T11:11:55.157Z,5.07
2022-08-26T11:15:05.253Z,5.63
2022-08-26T11:18:48.821Z,4.57
2022-08-26T11:22:11.040Z,4.43
2022-08-26T11:25:22.797Z,5.93
2022-08-26T11:28:39.665Z,4.73
2022-08-26T11:31:56.851Z,5.10
2022-08-26T11:35:09.944Z,3.93
2022-08-26T11:38:30.613Z,4.13
2022-08-26T11:41:39.889Z,4.77
2022-08-26T11:44:49.248Z,3.37
2022-08-26T11:47:58.123Z,3.60
2022-08-26T11:51:11.838Z,3.53
2022-08-26T11:54:35.663Z,3.57
2022-08-26T11:57:48.140Z,3.80
2022-08-26T12:01:01.742Z,3.60
2022-08-26T12:04:23.184Z,3.10
2022-08-26T12:07:33.567Z,3.17
2022-08-26T12:10:43.340Z,3.23
2022-08-26T12:14:00.794Z,2.80
2022-08-26T12:17:15.215Z,3.70
2022-08-26T12:20:48.078Z,3.00
2022-08-26T12:24:00.348Z,3.83
2022-08-26T12:27:21.966Z,3.17
2022-08-26T12:30:31.067Z,4.03
2022-08-26T12:33:41.158Z,4.10
2022-08-26T12:36:55.238Z,3.77
2022-08-26T12:40:35.604Z,4.20
2022-08-26T12:43:46.837Z,3.90
2022-08-26T12:47:01.848Z,3.93
2022-08-26T12:50:21.965Z,4.73
2022-08-26T12:53:33.941Z,4.30
2022-08-26T12:56:45.252Z,3.73
2022-08-26T12:59:54.284Z,3.50
2022-08-26T13:03:03.971Z,3.50
2022-08-26T13:06:29.608Z,3.43
2022-08-26T13:09:38.498Z,3.53
2022-08-26T13:12:48.961Z,3.37
2022-08-26T13:15:57.337Z,4.17
2022-08-26T13:19:10.227Z,3.37
2022-08-26T13:22:24.179Z,3.00
2022-08-26T13:25:32.589Z,2.90
2022-08-26T13:28:43.175Z,2.40
2022-08-26T13:31:52.255Z,2.37
2022-08-26T13:35:00.719Z,2.10
2022-08-26T13:38:30.879Z,1.67
2022-08-26T13:41:42.345Z,1.53
2022-08-26T13:44:55.325Z,2.10
2022-08-26T13:48:04.679Z,1.80
2022-08-26T13:51:12.982Z,1.93
2022-08-26T13:54:21.877Z,2.60
2022-08-26T13:57:31.031Z,1.33
2022-08-26T14:00:42.823Z,2.10
2022-08-26T14:03:51.341Z,1.80
2022-08-26T14:06:59.624Z,1.47
2022-08-26T14:10:09.494Z,1.40
2022-08-26T14:13:18.346Z,1.73
2022-08-26T14:16:33.364Z,1.50
2022-08-26T14:19:46.909Z,3.40
2022-08-26T14:23:14.406Z,3.10
2022-08-26T14:26:29.094Z,3.10
2022-08-26T14:29:37.881Z,3.50
2022-08-26T14:32:52.394Z,3.67
2022-08-26T14:36:15.032Z,3.70
2022-08-26T14:39:23.409Z,3.20
2022-08-26T14:42:32.435Z,3.57
2022-08-26T14:45:45.711Z,3.50
2022-08-26T14:48:56.699Z,2.80
2022-08-26T14:52:09.882Z,3.30
2022-08-26T14:55:17.301Z,3.17
2022-08-26T14:58:25.533Z,3.20
2022-08-26T15:01:39.368Z,3.50
2022-08-26T15:04:50.487Z,3.10
2022-08-26T15:07:59.015Z,3.40
2022-08-26T15:11:07.621Z,3.20
2022-08-26T15:14:19.494Z,3.33
2022-08-26T15:17:28.428Z,3.07
2022-08-26T15:20:38.201Z,3.53
2022-08-26T15:23:47.854Z,3.17
2022-08-26T15:26:56.330Z,3.63
2022-08-26T15:30:06.331Z,3.87
2022-08-26T15:33:14.942Z,3.20
2022-08-26T15:36:25.152Z,3.10
2022-08-26T15:39:33.874Z,3.07
2022-08-26T15:42:42.067Z,3.10
2022-08-26T15:45:50.601Z,3.20
2022-08-26T15:48:58.984Z,3.83
2022-08-26T15:52:09.398Z,4.00
2022-08-26T15:55:17.853Z,3.40
2022-08-26T15:58:27.926Z,2.97
2022-08-26T16:01:37.448Z,2.93
2022-08-26T16:04:45.810Z,3.40
2022-08-26T16:07:55.400Z,15.13
2022-08-26T16:11:05.866Z,4.20
2022-08-26T16:14:15.750Z,2.80
2022-08-26T16:17:24.232Z,2.90
2022-08-26T16:20:36.486Z,3.30
2022-08-26T16:23:46.844Z,3.33
2022-08-26T16:26:55.830Z,4.03
2022-08-26T16:30:07.347Z,3.20
2022-08-26T16:33:21.626Z,3.70
2022-08-26T16:36:39.719Z,4.10
2022-08-26T16:39:49.620Z,4.57
2022-08-26T16:42:58.037Z,4.03
2022-08-26T16:46:07.961Z,3.57
2022-08-26T16:49:16.445Z,3.53
2022-08-26T16:52:25.016Z,4.03
2022-08-26T16:55:40.102Z,3.93
2022-08-26T16:58:49.052Z,3.80
2022-08-26T17:01:57.569Z,3.43
2022-08-26T17:05:07.300Z,4.40
2022-08-26T17:08:27.488Z,3.83
2022-08-26T17:11:38.933Z,4.37
2022-08-26T17:14:47.371Z,3.93
2022-08-26T17:17:57.420Z,4.37
2022-08-26T17:21:10.537Z,4.37
2022-08-26T17:24:18.986Z,3.93
2022-08-26T17:27:28.542Z,3.97
2022-08-26T17:30:37.158Z,4.50
2022-08-26T17:33:48.901Z,3.97
2022-08-26T17:37:01.953Z,4.33
2022-08-26T17:40:16.010Z,4.10
2022-08-26T17:43:26.680Z,4.50
2022-08-26T17:46:38.166Z,4.70
2022-08-26T17:49:46.839Z,4.20
2022-08-26T17:52:55.193Z,4.53
2022-08-26T17:56:07.056Z,4.53
2022-08-26T17:59:18.690Z,5.17
2022-08-26T18:05:48.784Z,4.00
2022-08-26T18:08:58.798Z,4.63
2022-08-26T18:12:08.316Z,5.10
2022-08-26T18:15:20.458Z,5.07
2022-08-26T18:18:28.978Z,4.30
2022-08-26T18:21:38.507Z,4.80
2022-08-26T18:24:52.820Z,5.03
2022-08-26T18:28:08.044Z,5.17
2022-08-26T18:31:18.448Z,4.97
2022-08-26T18:34:31.559Z,5.60
2022-08-26T18:37:41.688Z,5.03
2022-08-26T18:40:51.966Z,5.37
2022-08-26T18:44:01.148Z,5.80
2022-08-26T18:47:10.976Z,6.77
2022-08-26T18:50:19.982Z,6.17
2022-08-26T18:53:31.007Z,5.57
2022-08-26T18:56:42.433Z,6.53
2022-08-26T18:59:51.113Z,6.73
2022-08-26T19:03:00.913Z,5.67
2022-08-26T19:06:13.541Z,5.60
2022-08-26T19:09:22.493Z,5.53
2022-08-26T19:12:31.429Z,6.13
2022-08-26T19:15:45.911Z,6.80
2022-08-26T19:18:59.056Z,6.00
2022-08-26T19:22:08.269Z,5.67
2022-08-26T19:25:17.603Z,6.73
2022-08-26T19:28:26.033Z,7.20
2022-08-26T19:31:34.566Z,5.73
2022-08-26T19:34:45.439Z,2.60
2022-08-26T19:37:53.864Z,2.97
2022-08-26T19:41:02.536Z,2.00
2022-08-26T19:44:34.133Z,1.60
2022-08-26T19:47:43.164Z,1.90
2022-08-26T19:50:53.022Z,1.67
2022-08-26T19:54:02.582Z,2.50
2022-08-26T19:57:11.889Z,1.67
2022-08-26T20:00:26.851Z,1.40
2022-08-26T20:03:36.684Z,1.90
2022-08-26T20:06:46.444Z,2.27
2022-08-26T20:10:00.739Z,2.57
2022-08-26T20:13:09.571Z,2.67
2022-08-26T20:16:19.043Z,2.47
2022-08-26T20:19:45.451Z,2.03
2022-08-26T20:22:55.714Z,2.80
2022-08-26T20:26:04.409Z,2.90
2022-08-26T20:29:18.437Z,3.07
2022-08-26T20:32:27.628Z,3.23
2022-08-26T20:35:36.443Z,3.80
2022-08-26T20:38:46.654Z,3.53
2022-08-26T20:41:55.099Z,3.67
2022-08-26T20:45:04.127Z,4.23
2022-08-26T20:48:12.529Z,4.47
2022-08-26T20:51:22.922Z,4.23
2022-08-26T20:54:32.848Z,4.40
2022-08-26T20:57:42.090Z,4.17
2022-08-26T21:00:50.702Z,4.63
2022-08-26T21:03:59.291Z,4.60
2022-08-26T21:07:08.503Z,4.70
2022-08-26T21:10:18.597Z,5.13
2022-08-26T21:13:26.975Z,4.67
2022-08-26T21:16:36.688Z,5.03
2022-08-26T21:19:46.774Z,5.37
2022-08-26T21:22:55.193Z,4.93
2022-08-26T21:26:07.858Z,5.13
2022-08-26T21:29:16.333Z,5.70
2022-08-26T21:32:25.273Z,5.60
2022-08-26T21:35:33.585Z,5.27
2022-08-26T21:38:43.076Z,5.23
2022-08-26T21:41:53.373Z,4.97
2022-08-26T21:45:02.983Z,4.67
2022-08-26T21:48:11.299Z,4.13
2022-08-26T21:51:22.544Z,5.40
2022-08-26T21:54:30.740Z,4.47
2022-08-26T21:57:40.866Z,4.80
2022-08-26T22:00:52.012Z,4.33
2022-08-26T22:04:00.410Z,4.50
2022-08-26T22:07:08.586Z,4.70
2022-08-26T22:10:16.854Z,5.27
2022-08-26T22:13:30.560Z,4.93
2022-08-26T22:16:39.340Z,5.13
2022-08-26T22:19:47.910Z,4.63
2022-08-26T22:22:58.075Z,3.93
2022-08-26T22:26:08.512Z,4.20
2022-08-26T22:29:19.420Z,4.67
2022-08-26T22:32:28.261Z,3.70
2022-08-26T22:35:40.459Z,3.80
2022-08-26T22:38:52.375Z,3.90
2022-08-26T22:42:03.660Z,4.90
2022-08-26T22:45:14.457Z,4.60
2022-08-26T22:48:26.681Z,5.00
2022-08-26T22:51:35.893Z,5.10
2022-08-26T22:54:45.209Z,5.33
2022-08-26T22:57:53.502Z,4.80
2022-08-26T23:01:06.194Z,4.83
2022-08-26T23:04:15.533Z,4.57
2022-08-26T23:07:26.488Z,5.47
2022-08-26T23:10:36.810Z,5.10
2022-08-26T23:13:45.301Z,5.20
2022-08-26T23:16:55.354Z,4.90
2022-08-26T23:20:09.068Z,5.33
2022-08-26T23:23:18.617Z,5.53
2022-08-26T23:26:27.141Z,5.07
2022-08-26T23:29:39.709Z,5.17
2022-08-26T23:32:49.772Z,5.07
2022-08-26T23:35:57.562Z,5.90
2022-08-26T23:39:07.197Z,5.37
2022-08-26T23:42:16.006Z,5.60
2022-08-26T23:45:25.944Z,6.23
2022-08-26T23:48:36.878Z,5.57
2022-08-26T23:52:02.800Z,6.07
2022-08-26T23:55:12.700Z,5.80
2022-08-26T23:58:22.632Z,6.47
